createdAt,value
2023-03-17T00:00:30.470Z,1013.65
2023-03-17T00:01:31.229Z,1013.68
2023-03-17T00:02:30.315Z,1013.63
2023-03-17T00:03:30.463Z,1013.66
2023-03-17T00:04:30.301Z,1013.64
2023-03-17T00:05:30.248Z,1013.65
2023-03-17T00:06:30.314Z,1013.63
2023-03-17T00:07:30.243Z,1013.59
2023-03-17T00:08:30.244Z,1013.60
2023-03-17T00:09:30.252Z,1013.58
2023-03-17T00:10:30.481Z,1013.56
2023-03-17T00:11:30.214Z,1013.55
2023-03-17T00:12:30.112Z,1013.53
2023-03-17T00:13:30.095Z,1013.54
2023-03-17T00:14:30.059Z,1013.54
2023-03-17T00:15:30.033Z,1013.49
2023-03-17T00:16:30.034Z,1013.46
2023-03-17T00:17:30.009Z,1013.44
2023-03-17T00:18:30.055Z,1013.48
2023-03-17T00:19:30.058Z,1013.53
2023-03-17T00:20:30.195Z,1013.50
2023-03-17T00:21:29.984Z,1013.45
2023-03-17T00:22:29.957Z,1013.49
2023-03-17T00:23:30.035Z,1013.47
2023-03-17T00:24:30.034Z,1013.46
2023-03-17T00:25:29.958Z,1013.48
2023-03-17T00:26:29.951Z,1013.47
2023-03-17T00:27:29.922Z,1013.47
2023-03-17T00:28:29.915Z,1013.47
2023-03-17T00:29:29.896Z,1013.48
2023-03-17T00:30:30.210Z,1013.47
2023-03-17T00:31:30.055Z,1013.45
2023-03-17T00:32:29.940Z,1013.45
2023-03-17T00:33:29.860Z,1013.44
2023-03-17T00:34:29.838Z,1013.43
2023-03-17T00:35:29.934Z,1013.38
2023-03-17T00:36:29.833Z,1013.34
2023-03-17T00:37:29.795Z,1013.31
2023-03-17T00:38:29.850Z,1013.32
2023-03-17T00:39:29.780Z,1013.29
2023-03-17T00:40:30.018Z,1013.31
2023-03-17T00:41:29.770Z,1013.28
2023-03-17T00:42:29.745Z,1013.28
2023-03-17T00:43:30.721Z,1013.30
2023-03-17T00:44:29.719Z,1013.24
2023-03-17T00:45:29.710Z,1013.19
2023-03-17T00:46:29.765Z,1013.20
2023-03-17T00:47:29.693Z,1013.19
2023-03-17T00:48:29.673Z,1013.19
2023-03-17T00:49:29.696Z,1013.14
2023-03-17T00:50:29.898Z,1013.14
2023-03-17T00:51:29.673Z,1013.15
2023-03-17T00:52:29.666Z,1013.11
2023-03-17T00:53:29.616Z,1013.06
2023-03-17T00:54:29.643Z,1013.02
2023-03-17T00:55:29.605Z,1013.01
2023-03-17T00:56:29.589Z,1012.97
2023-03-17T00:57:29.577Z,1012.93
2023-03-17T00:58:29.573Z,1012.85
2023-03-17T00:59:29.588Z,1012.90
2023-03-17T01:00:30.119Z,1012.82
2023-03-17T01:01:29.540Z,1012.84
2023-03-17T01:02:29.589Z,1012.83
2023-03-17T01:03:29.510Z,1012.85
2023-03-17T01:04:29.521Z,1012.82
2023-03-17T01:05:29.511Z,1012.80
2023-03-17T01:06:29.500Z,1012.81
2023-03-17T01:07:29.466Z,1012.80
2023-03-17T01:08:29.471Z,1012.78
2023-03-17T01:09:29.462Z,1012.79
2023-03-17T01:10:29.775Z,1012.79
2023-03-17T01:11:29.456Z,1012.81
2023-03-17T01:12:29.420Z,1012.81
2023-03-17T01:13:29.413Z,1012.85
2023-03-17T01:14:29.445Z,1012.88
2023-03-17T01:15:29.465Z,1012.82
2023-03-17T01:16:29.478Z,1012.86
2023-03-17T01:17:29.371Z,1012.84
2023-03-17T01:18:29.407Z,1012.84
2023-03-17T01:19:29.336Z,1012.82
2023-03-17T01:20:29.635Z,1012.76
2023-03-17T01:21:29.354Z,1012.74
2023-03-17T01:22:29.312Z,1012.73
2023-03-17T01:23:29.300Z,1012.74
2023-03-17T01:24:29.295Z,1012.73
2023-03-17T01:25:29.297Z,1012.73
2023-03-17T01:26:29.315Z,1012.73
2023-03-17T01:27:29.256Z,1012.72
2023-03-17T01:28:29.275Z,1012.72
2023-03-17T01:29:29.281Z,1012.74
2023-03-17T01:30:29.541Z,1012.71
2023-03-17T01:31:29.269Z,1012.66
2023-03-17T01:32:29.245Z,1012.65
2023-03-17T01:33:29.218Z,1012.65
2023-03-17T01:34:29.201Z,1012.64
2023-03-17T01:35:29.186Z,1012.60
2023-03-17T01:36:29.215Z,1012.57
2023-03-17T01:37:29.155Z,1012.56
2023-03-17T01:38:29.144Z,1012.53
2023-03-17T01:39:29.243Z,1012.53
2023-03-17T01:40:29.489Z,1012.54
2023-03-17T01:41:29.155Z,1012.54
2023-03-17T01:42:29.101Z,1012.54
2023-03-17T01:43:29.102Z,1012.54
2023-03-17T01:44:29.201Z,1012.50
2023-03-17T01:45:29.087Z,1012.49
2023-03-17T01:46:29.096Z,1012.45
2023-03-17T01:47:29.043Z,1012.45
2023-03-17T01:48:29.040Z,1012.43
2023-03-17T01:49:29.021Z,1012.42
2023-03-17T01:50:29.376Z,1012.39
2023-03-17T01:51:29.042Z,1012.43
2023-03-17T01:52:29.008Z,1012.44
2023-03-17T01:53:28.978Z,1012.41
2023-03-17T01:54:28.966Z,1012.42
2023-03-17T01:55:28.963Z,1012.44
2023-03-17T01:56:28.970Z,1012.40
2023-03-17T01:57:28.948Z,1012.41
2023-03-17T01:58:28.935Z,1012.36
2023-03-17T01:59:28.915Z,1012.31
2023-03-17T02:00:29.165Z,1012.27
2023-03-17T02:01:28.947Z,1012.26
2023-03-17T02:02:28.878Z,1012.23
2023-03-17T02:03:28.870Z,1012.20
2023-03-17T02:04:28.949Z,1012.17
2023-03-17T02:05:28.853Z,1012.21
2023-03-17T02:06:28.874Z,1012.14
2023-03-17T02:07:28.841Z,1012.16
2023-03-17T02:08:28.859Z,1012.14
2023-03-17T02:09:28.819Z,1012.13
2023-03-17T02:10:29.199Z,1012.19
2023-03-17T02:11:28.813Z,1012.20
2023-03-17T02:12:28.773Z,1012.16
2023-03-17T02:13:28.768Z,1012.21
2023-03-17T02:14:28.815Z,1012.20
2023-03-17T02:15:28.748Z,1012.17
2023-03-17T02:16:28.781Z,1012.16
2023-03-17T02:17:28.728Z,1012.10
2023-03-17T02:18:28.706Z,1012.10
2023-03-17T02:19:28.734Z,1012.09
2023-03-17T02:20:29.145Z,1012.10
2023-03-17T02:21:28.734Z,1012.13
2023-03-17T02:22:28.675Z,1012.07
2023-03-17T02:23:28.664Z,1012.04
2023-03-17T02:24:28.650Z,1012.02
2023-03-17T02:25:28.643Z,1012.02
2023-03-17T02:26:28.655Z,1011.98
2023-03-17T02:27:28.621Z,1012.02
2023-03-17T02:28:28.603Z,1012.02
2023-03-17T02:29:28.604Z,1011.99
2023-03-17T02:30:28.780Z,1012.02
2023-03-17T02:31:28.590Z,1011.99
2023-03-17T02:32:28.602Z,1012.02
2023-03-17T02:33:28.561Z,1012.06
2023-03-17T02:34:28.574Z,1012.13
2023-03-17T02:35:28.539Z,1012.03
2023-03-17T02:36:28.564Z,1012.02
2023-03-17T02:37:28.517Z,1012.04
2023-03-17T02:38:28.504Z,1011.97
2023-03-17T02:39:28.498Z,1011.99
2023-03-17T02:40:28.695Z,1011.99
2023-03-17T02:41:28.474Z,1011.98
2023-03-17T02:42:28.449Z,1011.98
2023-03-17T02:43:28.462Z,1011.95
2023-03-17T02:44:28.446Z,1011.95
2023-03-17T02:45:28.421Z,1011.93
2023-03-17T02:46:28.468Z,1011.92
2023-03-17T02:47:28.429Z,1011.93
2023-03-17T02:48:28.386Z,1011.91
2023-03-17T02:49:28.395Z,1011.87
2023-03-17T02:50:28.645Z,1011.87
2023-03-17T02:51:28.382Z,1011.87
2023-03-17T02:52:28.361Z,1011.86
2023-03-17T02:53:28.341Z,1011.87
2023-03-17T02:54:28.357Z,1011.86
2023-03-17T02:55:28.327Z,1011.85
2023-03-17T02:56:28.316Z,1011.87
2023-03-17T02:57:28.329Z,1011.87
2023-03-17T02:58:28.280Z,1011.80
2023-03-17T02:59:28.307Z,1011.79
2023-03-17T03:00:28.580Z,1011.82
2023-03-17T03:01:28.267Z,1011.84
2023-03-17T03:02:28.312Z,1011.83
2023-03-17T03:03:28.233Z,1011.84
2023-03-17T03:04:28.217Z,1011.86
2023-03-17T03:05:28.217Z,1011.86
2023-03-17T03:06:28.217Z,1011.87
2023-03-17T03:07:28.204Z,1011.88
2023-03-17T03:08:28.172Z,1011.85
2023-03-17T03:09:28.181Z,1011.78
2023-03-17T03:10:28.550Z,1011.82
2023-03-17T03:11:28.145Z,1011.81
2023-03-17T03:12:28.147Z,1011.76
2023-03-17T03:13:28.133Z,1011.78
2023-03-17T03:14:28.125Z,1011.77
2023-03-17T03:15:28.115Z,1011.76
2023-03-17T03:16:28.127Z,1011.76
2023-03-17T03:17:28.106Z,1011.80
2023-03-17T03:18:28.095Z,1011.83
2023-03-17T03:19:28.082Z,1011.87
2023-03-17T03:20:28.345Z,1011.87
2023-03-17T03:21:28.041Z,1011.92
2023-03-17T03:22:28.031Z,1011.94
2023-03-17T03:23:28.012Z,1011.98
2023-03-17T03:24:28.000Z,1011.95
2023-03-17T03:25:28.124Z,1012.01
2023-03-17T03:26:27.984Z,1011.97
2023-03-17T03:27:27.994Z,1011.97
2023-03-17T03:28:27.974Z,1011.98
2023-03-17T03:29:27.976Z,1011.93
2023-03-17T03:30:27.934Z,1011.98
2023-03-17T03:31:28.028Z,1011.97
2023-03-17T03:32:27.961Z,1012.00
2023-03-17T03:33:27.903Z,1012.01
2023-03-17T03:34:27.967Z,1012.10
2023-03-17T03:35:27.948Z,1012.05
2023-03-17T03:36:28.001Z,1012.11
2023-03-17T03:37:27.889Z,1012.07
2023-03-17T03:38:27.853Z,1012.05
2023-03-17T03:39:28.135Z,1012.06
2023-03-17T03:40:28.163Z,1012.06
2023-03-17T03:41:27.851Z,1012.01
2023-03-17T03:42:27.829Z,1011.99
2023-03-17T03:43:27.799Z,1011.98
2023-03-17T03:44:27.794Z,1011.96
2023-03-17T03:45:27.804Z,1011.98
2023-03-17T03:46:27.863Z,1011.96
2023-03-17T03:47:27.761Z,1011.92
2023-03-17T03:48:27.736Z,1011.93
2023-03-17T03:49:27.751Z,1011.93
2023-03-17T03:50:27.888Z,1011.93
2023-03-17T03:51:27.713Z,1011.92
2023-03-17T03:52:27.705Z,1011.91
2023-03-17T03:53:27.688Z,1011.91
2023-03-17T03:54:27.689Z,1011.91
2023-03-17T03:55:27.675Z,1011.90
2023-03-17T03:56:27.665Z,1011.93
2023-03-17T03:57:27.666Z,1011.89
2023-03-17T03:58:27.649Z,1011.91
2023-03-17T03:59:27.630Z,1011.92
2023-03-17T04:00:27.673Z,1011.94
2023-03-17T04:01:27.625Z,1011.92
2023-03-17T04:02:27.668Z,1011.93
2023-03-17T04:03:27.585Z,1011.93
2023-03-17T04:04:27.593Z,1011.96
2023-03-17T04:05:27.583Z,1011.94
2023-03-17T04:06:27.561Z,1011.94
2023-03-17T04:07:27.570Z,1011.94
2023-03-17T04:08:27.544Z,1011.97
2023-03-17T04:09:27.518Z,1011.95
2023-03-17T04:10:27.500Z,1011.94
2023-03-17T04:11:27.540Z,1011.92
2023-03-17T04:12:27.503Z,1011.91
2023-03-17T04:13:27.469Z,1011.90
2023-03-17T04:14:27.463Z,1011.89
2023-03-17T04:15:27.487Z,1011.89
2023-03-17T04:16:27.544Z,1011.87
2023-03-17T04:17:27.468Z,1011.85
2023-03-17T04:18:27.515Z,1011.86
2023-03-17T04:19:27.421Z,1011.83
2023-03-17T04:20:27.449Z,1011.83
2023-03-17T04:21:27.408Z,1011.84
2023-03-17T04:22:27.398Z,1011.80
2023-03-17T04:23:27.394Z,1011.82
2023-03-17T04:24:27.404Z,1011.73
2023-03-17T04:25:27.381Z,1011.83
2023-03-17T04:26:27.387Z,1011.79
2023-03-17T04:27:27.412Z,1011.79
2023-03-17T04:28:27.371Z,1011.75
2023-03-17T04:29:27.300Z,1011.74
2023-03-17T04:30:27.337Z,1011.71
2023-03-17T04:31:27.491Z,1011.68
2023-03-17T04:32:27.383Z,1011.67
2023-03-17T04:33:27.257Z,1011.60
2023-03-17T04:34:27.271Z,1011.57
2023-03-17T04:35:27.298Z,1011.55
2023-03-17T04:36:27.239Z,1011.54
2023-03-17T04:37:27.222Z,1011.55
2023-03-17T04:38:27.201Z,1011.53
2023-03-17T04:39:27.210Z,1011.49
2023-03-17T04:40:27.206Z,1011.52
2023-03-17T04:41:27.205Z,1011.53
2023-03-17T04:42:27.190Z,1011.53
2023-03-17T04:43:27.165Z,1011.55
2023-03-17T04:44:27.168Z,1011.59
2023-03-17T04:45:27.229Z,1011.60
2023-03-17T04:46:27.126Z,1011.62
2023-03-17T04:47:27.122Z,1011.61
2023-03-17T04:48:27.127Z,1011.64
2023-03-17T04:49:27.048Z,1011.64
2023-03-17T04:50:27.031Z,1011.67
2023-03-17T04:51:27.120Z,1011.63
2023-03-17T04:52:27.083Z,1011.62
2023-03-17T04:53:27.097Z,1011.63
2023-03-17T04:54:27.031Z,1011.59
2023-03-17T04:55:27.010Z,1011.55
2023-03-17T04:56:28.040Z,1011.56
2023-03-17T04:57:27.009Z,1011.59
2023-03-17T04:58:30.838Z,1011.59
2023-03-17T04:59:26.977Z,1011.63
2023-03-17T05:00:26.969Z,1011.60
2023-03-17T05:01:26.970Z,1011.60
2023-03-17T05:02:26.914Z,1011.58
2023-03-17T05:03:28.085Z,1011.58
2023-03-17T05:04:31.636Z,1011.59
2023-03-17T05:05:26.903Z,1011.57
2023-03-17T05:06:26.852Z,1011.57
2023-03-17T05:07:26.893Z,1011.58
2023-03-17T05:08:27.519Z,1011.55
2023-03-17T05:09:26.964Z,1011.58
2023-03-17T05:10:27.511Z,1011.58
2023-03-17T05:11:26.974Z,1011.59
2023-03-17T05:12:26.881Z,1011.58
2023-03-17T05:13:26.802Z,1011.58
2023-03-17T05:14:26.773Z,1011.55
2023-03-17T05:15:27.506Z,1011.52
2023-03-17T05:16:26.789Z,1011.51
2023-03-17T05:17:26.740Z,1011.50
2023-03-17T05:18:26.733Z,1011.45
2023-03-17T05:19:26.716Z,1011.42
2023-03-17T05:20:26.780Z,1011.38
2023-03-17T05:21:26.692Z,1011.32
2023-03-17T05:22:26.683Z,1011.27
2023-03-17T05:23:26.695Z,1011.23
2023-03-17T05:24:26.674Z,1011.18
2023-03-17T05:25:26.667Z,1011.21
2023-03-17T05:26:26.641Z,1011.26
2023-03-17T05:27:26.680Z,1011.29
2023-03-17T05:28:26.622Z,1011.31
2023-03-17T05:29:26.606Z,1011.33
2023-03-17T05:30:26.592Z,1011.33
2023-03-17T05:31:26.658Z,1011.38
2023-03-17T05:32:26.622Z,1011.40
2023-03-17T05:33:26.591Z,1011.42
2023-03-17T05:34:26.546Z,1011.45
2023-03-17T05:35:26.550Z,1011.46
2023-03-17T05:36:26.548Z,1011.45
2023-03-17T05:37:26.707Z,1011.44
2023-03-17T05:38:26.536Z,1011.44
2023-03-17T05:39:26.503Z,1011.43
2023-03-17T05:40:26.495Z,1011.41
2023-03-17T05:41:26.518Z,1011.42
2023-03-17T05:42:26.477Z,1011.47
2023-03-17T05:43:26.473Z,1011.49
2023-03-17T05:44:26.445Z,1011.49
2023-03-17T05:45:26.455Z,1011.46
2023-03-17T05:46:26.501Z,1011.43
2023-03-17T05:47:26.631Z,1011.43
2023-03-17T05:48:26.406Z,1011.46
2023-03-17T05:49:26.402Z,1011.49
2023-03-17T05:50:26.405Z,1011.53
2023-03-17T05:51:26.385Z,1011.53
2023-03-17T05:52:26.422Z,1011.51
2023-03-17T05:53:26.349Z,1011.52
2023-03-17T05:54:26.344Z,1011.52
2023-03-17T05:55:26.349Z,1011.49
2023-03-17T05:56:26.328Z,1011.51
2023-03-17T05:57:26.334Z,1011.56
2023-03-17T05:58:26.305Z,1011.60
2023-03-17T05:59:26.319Z,1011.63
2023-03-17T06:00:26.272Z,1011.64
2023-03-17T06:01:26.295Z,1011.64
2023-03-17T06:02:26.415Z,1011.64
2023-03-17T06:03:26.300Z,1011.65
2023-03-17T06:04:26.244Z,1011.67
2023-03-17T06:05:26.390Z,1011.60
2023-03-17T06:06:26.262Z,1011.54
2023-03-17T06:07:26.410Z,1011.53
2023-03-17T06:08:26.241Z,1011.55
2023-03-17T06:09:26.201Z,1011.52
2023-03-17T06:10:26.197Z,1011.52
2023-03-17T06:11:26.187Z,1011.51
2023-03-17T06:12:26.168Z,1011.51
2023-03-17T06:13:26.209Z,1011.53
2023-03-17T06:14:27.221Z,1011.50
2023-03-17T06:15:26.186Z,1011.44
2023-03-17T06:16:26.211Z,1011.41
2023-03-17T06:17:26.113Z,1011.36
2023-03-17T06:18:26.114Z,1011.35
2023-03-17T06:19:26.104Z,1011.34
2023-03-17T06:20:26.082Z,1011.35
2023-03-17T06:21:26.055Z,1011.37
2023-03-17T06:22:26.041Z,1011.34
2023-03-17T06:23:26.070Z,1011.37
2023-03-17T06:24:26.032Z,1011.39
2023-03-17T06:25:26.072Z,1011.45
2023-03-17T06:26:26.056Z,1011.51
2023-03-17T06:27:26.073Z,1011.46
2023-03-17T06:28:26.080Z,1011.49
2023-03-17T06:29:25.987Z,1011.54
2023-03-17T06:30:26.043Z,1011.54
2023-03-17T06:31:26.001Z,1011.54
2023-03-17T06:32:25.990Z,1011.51
2023-03-17T06:33:26.171Z,1011.51
2023-03-17T06:34:26.631Z,1011.49
2023-03-17T06:35:25.980Z,1011.45
2023-03-17T06:36:26.029Z,1011.44
2023-03-17T06:37:25.958Z,1011.41
2023-03-17T06:38:26.132Z,1011.44
2023-03-17T06:39:26.144Z,1011.47
2023-03-17T06:40:26.144Z,1011.45
2023-03-17T06:41:26.059Z,1011.44
2023-03-17T06:42:25.864Z,1011.44
2023-03-17T06:43:25.945Z,1011.38
2023-03-17T06:44:25.867Z,1011.41
2023-03-17T06:45:25.902Z,1011.41
2023-03-17T06:46:25.833Z,1011.39
2023-03-17T06:47:26.166Z,1011.35
2023-03-17T06:48:26.172Z,1011.33
2023-03-17T06:49:25.776Z,1011.31
2023-03-17T06:50:25.764Z,1011.35
2023-03-17T06:51:25.831Z,1011.33
2023-03-17T06:52:25.722Z,1011.31
2023-03-17T06:53:25.733Z,1011.33
2023-03-17T06:54:25.701Z,1011.31
2023-03-17T06:55:25.689Z,1011.29
2023-03-17T06:56:30.361Z,1011.29
2023-03-17T06:57:25.682Z,1011.26
2023-03-17T06:58:25.736Z,1011.26
2023-03-17T06:59:25.718Z,1011.22
2023-03-17T07:00:25.672Z,1011.17
2023-03-17T07:01:25.708Z,1011.18
2023-03-17T07:02:25.686Z,1011.16
2023-03-17T07:03:25.691Z,1011.18
2023-03-17T07:04:25.714Z,1011.18
2023-03-17T07:05:25.621Z,1011.18
2023-03-17T07:06:27.028Z,1011.20
2023-03-17T07:07:25.575Z,1011.22
2023-03-17T07:08:25.556Z,1011.20
2023-03-17T07:09:25.622Z,1011.19
2023-03-17T07:10:25.785Z,1011.21
2023-03-17T07:11:26.266Z,1011.19
2023-03-17T07:12:25.835Z,1011.19
2023-03-17T07:13:25.828Z,1011.19
2023-03-17T07:14:25.712Z,1011.23
2023-03-17T07:15:25.538Z,1011.21
2023-03-17T07:16:25.549Z,1011.18
2023-03-17T07:17:25.471Z,1011.18
2023-03-17T07:18:27.538Z,1011.16
2023-03-17T07:19:25.558Z,1011.12
2023-03-17T07:20:25.497Z,1011.10
2023-03-17T07:21:25.415Z,1011.02
2023-03-17T07:22:25.427Z,1011.01
2023-03-17T07:23:25.442Z,1010.94
2023-03-17T07:24:25.380Z,1010.96
2023-03-17T07:25:25.671Z,1010.94
2023-03-17T07:26:25.669Z,1010.89
2023-03-17T07:27:25.410Z,1010.91
2023-03-17T07:28:25.427Z,1010.86
2023-03-17T07:29:25.333Z,1010.86
2023-03-17T07:30:25.325Z,1010.87
2023-03-17T07:31:25.326Z,1010.89
2023-03-17T07:32:25.346Z,1010.97
2023-03-17T07:33:25.300Z,1010.85
2023-03-17T07:34:25.412Z,1010.87
2023-03-17T07:35:25.384Z,1010.81
2023-03-17T07:36:25.301Z,1010.73
2023-03-17T07:37:25.277Z,1010.68
2023-03-17T07:38:25.315Z,1010.67
2023-03-17T07:39:25.484Z,1010.70
2023-03-17T07:40:25.243Z,1010.71
2023-03-17T07:41:25.213Z,1010.76
2023-03-17T07:42:25.285Z,1010.79
2023-03-17T07:43:25.198Z,1010.89
2023-03-17T07:44:25.259Z,1010.78
2023-03-17T07:45:25.464Z,1010.72
2023-03-17T07:46:25.171Z,1010.56
2023-03-17T07:47:25.142Z,1010.47
2023-03-17T07:48:25.143Z,1010.45
2023-03-17T07:49:40.061Z,1010.49
2023-03-17T07:50:25.169Z,1010.59
2023-03-17T07:51:25.097Z,1010.70
2023-03-17T07:52:25.102Z,1010.81
2023-03-17T07:53:25.096Z,1010.77
2023-03-17T07:54:25.057Z,1010.79
2023-03-17T07:55:25.088Z,1010.74
2023-03-17T07:56:25.066Z,1010.80
2023-03-17T07:57:25.130Z,1010.82
2023-03-17T07:58:25.097Z,1010.92
2023-03-17T07:59:25.002Z,1010.94
2023-03-17T08:00:25.030Z,1010.93
2023-03-17T08:01:24.988Z,1010.88
2023-03-17T08:02:27.016Z,1010.85
2023-03-17T08:03:25.090Z,1010.90
2023-03-17T08:04:24.982Z,1010.91
2023-03-17T08:05:24.943Z,1010.90
2023-03-17T08:06:24.946Z,1010.86
2023-03-17T08:07:24.972Z,1010.81
2023-03-17T08:08:24.983Z,1010.77
2023-03-17T08:09:24.968Z,1010.72
2023-03-17T08:10:24.993Z,1010.72
2023-03-17T08:11:24.951Z,1010.73
2023-03-17T08:12:24.872Z,1010.76
2023-03-17T08:13:24.869Z,1010.79
2023-03-17T08:14:24.848Z,1010.82
2023-03-17T08:15:31.643Z,1010.78
2023-03-17T08:16:27.274Z,1010.76
2023-03-17T08:17:24.855Z,1010.76
2023-03-17T08:18:24.835Z,1010.71
2023-03-17T08:19:24.798Z,1010.75
2023-03-17T08:20:24.794Z,1010.73
2023-03-17T08:21:24.819Z,1010.70
2023-03-17T08:22:24.787Z,1010.68
2023-03-17T08:23:24.777Z,1010.68
2023-03-17T08:24:24.801Z,1010.67
2023-03-17T08:25:24.752Z,1010.66
2023-03-17T08:26:24.750Z,1010.63
2023-03-17T08:27:24.703Z,1010.63
2023-03-17T08:28:24.732Z,1010.69
2023-03-17T08:29:24.714Z,1010.63
2023-03-17T08:30:24.680Z,1010.60
2023-03-17T08:31:24.755Z,1010.57
2023-03-17T08:32:24.650Z,1010.57
2023-03-17T08:33:24.680Z,1010.49
2023-03-17T08:34:24.655Z,1010.51
2023-03-17T08:35:24.682Z,1010.52
2023-03-17T08:36:24.617Z,1010.54
2023-03-17T08:37:24.610Z,1010.53
2023-03-17T08:38:24.606Z,1010.54
2023-03-17T08:39:24.596Z,1010.58
2023-03-17T08:40:24.607Z,1010.60
2023-03-17T08:41:24.549Z,1010.63
2023-03-17T08:42:24.558Z,1010.63
2023-03-17T08:43:24.542Z,1010.68
2023-03-17T08:44:24.534Z,1010.70
2023-03-17T08:45:24.544Z,1010.72
2023-03-17T08:46:24.564Z,1010.70
2023-03-17T08:47:24.490Z,1010.69
2023-03-17T08:48:24.515Z,1010.69
2023-03-17T08:49:24.478Z,1010.64
2023-03-17T08:50:24.473Z,1010.58
2023-03-17T08:51:24.782Z,1010.49
2023-03-17T08:52:24.462Z,1010.48
2023-03-17T08:53:24.468Z,1010.42
2023-03-17T08:54:24.445Z,1010.39
2023-03-17T08:55:24.456Z,1010.36
2023-03-17T08:56:24.426Z,1010.32
2023-03-17T08:57:24.395Z,1010.32
2023-03-17T08:58:24.421Z,1010.31
2023-03-17T08:59:24.379Z,1010.29
2023-03-17T09:00:24.378Z,1010.27
2023-03-17T09:01:24.476Z,1010.25
2023-03-17T09:02:24.407Z,1010.19
2023-03-17T09:03:24.352Z,1010.17
2023-03-17T09:04:24.345Z,1010.20
2023-03-17T09:05:24.371Z,1010.18
2023-03-17T09:06:24.334Z,1010.15
2023-03-17T09:07:24.310Z,1010.17
2023-03-17T09:08:24.290Z,1010.17
2023-03-17T09:09:24.312Z,1010.24
2023-03-17T09:10:24.279Z,1010.20
2023-03-17T09:11:24.281Z,1010.18
2023-03-17T09:12:24.243Z,1010.21
2023-03-17T09:13:24.250Z,1010.13
2023-03-17T09:14:24.229Z,1010.10
2023-03-17T09:15:24.204Z,1010.09
2023-03-17T09:16:24.473Z,1010.10
2023-03-17T09:17:24.188Z,1010.10
2023-03-17T09:18:24.207Z,1010.14
2023-03-17T09:19:24.174Z,1010.07
2023-03-17T09:20:24.179Z,1010.03
2023-03-17T09:21:24.153Z,1010.01
2023-03-17T09:22:24.122Z,1009.99
2023-03-17T09:23:24.153Z,1010.00
2023-03-17T09:24:24.112Z,1010.02
2023-03-17T09:25:24.131Z,1009.96
2023-03-17T09:26:24.132Z,1010.03
2023-03-17T09:27:24.074Z,1010.04
2023-03-17T09:28:24.090Z,1010.06
2023-03-17T09:29:24.083Z,1010.05
2023-03-17T09:30:24.080Z,1010.05
2023-03-17T09:31:24.196Z,1010.02
2023-03-17T09:32:24.055Z,1010.03
2023-03-17T09:33:24.058Z,1010.00
2023-03-17T09:34:24.039Z,1009.99
2023-03-17T09:35:24.020Z,1010.00
2023-03-17T09:36:24.042Z,1009.98
2023-03-17T09:37:23.970Z,1009.92
2023-03-17T09:38:23.982Z,1009.94
2023-03-17T09:39:24.009Z,1009.95
2023-03-17T09:40:23.963Z,1009.98
2023-03-17T09:41:23.969Z,1010.02
2023-03-17T09:42:23.935Z,1009.98
2023-03-17T09:43:23.917Z,1010.02
2023-03-17T09:44:23.925Z,1010.09
2023-03-17T09:45:23.896Z,1010.00
2023-03-17T09:46:23.910Z,1010.00
2023-03-17T09:47:23.889Z,1010.01
2023-03-17T09:48:23.866Z,1010.00
2023-03-17T09:49:23.874Z,1010.02
2023-03-17T09:50:23.935Z,1010.05
2023-03-17T09:51:23.824Z,1010.03
2023-03-17T09:52:23.843Z,1009.99
2023-03-17T09:53:23.803Z,1009.99
2023-03-17T09:54:23.842Z,1009.98
2023-03-17T09:55:23.795Z,1009.96
2023-03-17T09:56:23.787Z,1009.93
2023-03-17T09:57:23.771Z,1009.93
2023-03-17T09:58:23.753Z,1009.90
2023-03-17T09:59:23.846Z,1009.94
2023-03-17T10:00:23.757Z,1009.89
2023-03-17T10:01:23.790Z,1009.91
2023-03-17T10:02:23.733Z,1009.89
2023-03-17T10:03:23.729Z,1009.91
2023-03-17T10:04:23.710Z,1009.88
2023-03-17T10:05:23.804Z,1009.89
2023-03-17T10:06:23.694Z,1009.90
2023-03-17T10:07:23.686Z,1009.82
2023-03-17T10:08:31.318Z,1009.84
2023-03-17T10:09:26.572Z,1009.75
2023-03-17T10:10:24.225Z,1009.74
2023-03-17T10:11:23.626Z,1009.78
2023-03-17T10:12:23.644Z,1009.70
2023-03-17T10:13:23.583Z,1009.71
2023-03-17T10:14:23.657Z,1009.72
2023-03-17T10:15:23.604Z,1009.70
2023-03-17T10:16:23.614Z,1009.74
2023-03-17T10:17:23.571Z,1009.71
2023-03-17T10:18:23.550Z,1009.72
2023-03-17T10:19:23.566Z,1009.70
2023-03-17T10:20:23.610Z,1009.71
2023-03-17T10:21:23.508Z,1009.72
2023-03-17T10:22:23.511Z,1009.72
2023-03-17T10:23:23.490Z,1009.75
2023-03-17T10:24:23.479Z,1009.74
2023-03-17T10:25:23.480Z,1009.79
2023-03-17T10:26:23.529Z,1009.81
2023-03-17T10:27:23.446Z,1009.77
2023-03-17T10:28:23.469Z,1009.75
2023-03-17T10:29:23.441Z,1009.73
2023-03-17T10:30:23.431Z,1009.73
2023-03-17T10:31:23.492Z,1009.73
2023-03-17T10:32:23.388Z,1009.73
2023-03-17T10:33:23.559Z,1009.74
2023-03-17T10:34:23.380Z,1009.71
2023-03-17T10:35:23.402Z,1009.72
2023-03-17T10:36:23.372Z,1009.71
2023-03-17T10:37:23.341Z,1009.75
2023-03-17T10:38:23.352Z,1009.69
2023-03-17T10:39:23.330Z,1009.71
2023-03-17T10:40:23.345Z,1009.70
2023-03-17T10:41:23.300Z,1009.68
2023-03-17T10:42:23.297Z,1009.60
2023-03-17T10:43:23.404Z,1009.64
2023-03-17T10:44:23.773Z,1009.66
2023-03-17T10:45:23.268Z,1009.64
2023-03-17T10:46:23.399Z,1009.62
2023-03-17T10:47:23.232Z,1009.67
2023-03-17T10:48:23.255Z,1009.63
2023-03-17T10:49:23.232Z,1009.63
2023-03-17T10:50:23.225Z,1009.64
2023-03-17T10:51:23.225Z,1009.61
2023-03-17T10:52:23.221Z,1009.64
2023-03-17T10:53:23.204Z,1009.59
2023-03-17T10:54:23.146Z,1009.59
2023-03-17T10:55:23.147Z,1009.52
2023-03-17T10:56:23.150Z,1009.51
2023-03-17T10:57:23.133Z,1009.46
2023-03-17T10:58:23.103Z,1009.53
2023-03-17T10:59:23.142Z,1009.49
2023-03-17T11:00:23.079Z,1009.49
2023-03-17T11:01:23.181Z,1009.51
2023-03-17T11:02:23.109Z,1009.49
2023-03-17T11:03:23.144Z,1009.42
2023-03-17T11:04:23.099Z,1009.44
2023-03-17T11:05:23.067Z,1009.31
2023-03-17T11:06:23.036Z,1009.42
2023-03-17T11:07:23.027Z,1009.40
2023-03-17T11:08:23.002Z,1009.42
2023-03-17T11:09:23.018Z,1009.40
2023-03-17T11:10:22.977Z,1009.39
2023-03-17T11:11:23.035Z,1009.39
2023-03-17T11:12:23.019Z,1009.38
2023-03-17T11:13:23.104Z,1009.36
2023-03-17T11:14:22.953Z,1009.36
2023-03-17T11:15:22.943Z,1009.34
2023-03-17T11:16:22.952Z,1009.31
2023-03-17T11:17:22.909Z,1009.31
2023-03-17T11:18:22.896Z,1009.32
2023-03-17T11:19:22.931Z,1009.28
2023-03-17T11:20:22.894Z,1009.27
2023-03-17T11:21:22.891Z,1009.27
2023-03-17T11:22:22.862Z,1009.29
2023-03-17T11:23:22.858Z,1009.25
2023-03-17T11:24:22.841Z,1009.26
2023-03-17T11:25:22.840Z,1009.24
2023-03-17T11:26:22.820Z,1009.20
2023-03-17T11:27:22.806Z,1009.21
2023-03-17T11:28:22.783Z,1009.25
2023-03-17T11:29:22.843Z,1009.23
2023-03-17T11:30:22.758Z,1009.22
2023-03-17T11:31:22.837Z,1009.23
2023-03-17T11:32:22.753Z,1009.24
2023-03-17T11:33:22.764Z,1009.25
2023-03-17T11:34:22.753Z,1009.24
2023-03-17T11:35:22.752Z,1009.23
2023-03-17T11:36:22.704Z,1009.22
2023-03-17T11:37:22.700Z,1009.18
2023-03-17T11:38:22.723Z,1009.15
2023-03-17T11:39:22.730Z,1009.14
2023-03-17T11:40:22.740Z,1009.13
2023-03-17T11:41:22.650Z,1009.12
2023-03-17T11:42:22.641Z,1009.13
2023-03-17T11:43:22.642Z,1009.12
2023-03-17T11:44:22.661Z,1009.09
2023-03-17T11:45:22.631Z,1009.10
2023-03-17T11:46:22.790Z,1009.11
2023-03-17T11:47:22.621Z,1009.11
2023-03-17T11:48:22.571Z,1009.10
2023-03-17T11:49:22.579Z,1009.12
2023-03-17T11:50:22.547Z,1009.11
2023-03-17T11:51:22.538Z,1009.05
2023-03-17T11:52:22.530Z,1009.03
2023-03-17T11:53:22.540Z,1009.06
2023-03-17T11:54:22.560Z,1009.07
2023-03-17T11:55:22.499Z,1009.07
2023-03-17T11:56:22.504Z,1009.05
2023-03-17T11:57:22.551Z,1009.06
2023-03-17T11:58:22.478Z,1009.01
2023-03-17T11:59:22.512Z,1009.01
2023-03-17T12:00:22.668Z,1008.97
2023-03-17T12:01:22.444Z,1008.94
2023-03-17T12:02:22.412Z,1008.92
2023-03-17T12:03:22.629Z,1008.94
2023-03-17T12:04:22.515Z,1008.94
2023-03-17T12:05:22.404Z,1008.94